Crossville Memorial Whitson Field Crossville US
ICAO: KCSV
IATA: CSV
Category: Medium
Scheduled Services: No

Elevation: 1881 ft
TransAlt. 18000 ft.

Airport Communications:
ASOS:120.625
ATLANTA CNTR:133.6
NASHVILLE RDO:122.2
CTAF/UNICOM:122.7

KCSV Zoom In..

If you have problems with the map follow the link
https://www.worldairports.se/pages/airport.php?
ICAO=KCSV

Runways:

(A) RW 08 length 5418 ft width 100 ft
---- / hdg 75

(B) RW 26 length 5418 ft width 100 ft
ILS 109.10 / hdg 255

Location; KCSV
Day. 14 / Time. 21.15 Zulu
* Altimeter: 29.97
* Temperature: 09° c. 48.2°f.
* Wind from: 080° Speed 04 kn.
Dewpoint: 09° c.
Visibility: 6 Statute Miles.
Clouds: Broken 200 ft.
Clouds: Overcast 1000 ft.
Conditions: Light Rain.Conditions: Mist.

KCSV 142115Z AUTO 08004KT 6SM -RA BR BKN002 OVC010 09/09 A2997 RMK AO2 P0002 T00940089


Wind From 080°
Speed 04 kn.

 
 
jpsmedia.com for Web Design worldairports.se 2018   terms of use